Latest Weather Observations for Croker Island Airport

IDD60801

Issued at 8:01 am CST Wednesday 31 August 2016 (issued every 30 minutes, with the page automatically refreshed every 10 minutes)

About weather observations | Map of weather stations | Latest weather observations for NT | Other Formats
Station Details ID: 014308 Name: CROKER ISLAND AIRPORT Lat: -11.16 Lon: 132.48 Height: 9.2 m
Data from the previous 72 hours. | See also: Recent months at Croker Island Airport
Date/Time
CST
Temp
°C
App
Temp
°C
Dew
Point
°C
Rel
Hum
%
Delta-T
°C
Wind Press
QNH
hPa
Press
MSL
hPa
Rain since
9am
mm
Dir  Spd
km/h
Gust
km/h
Spd
kts
Gust
kts
31/08:00am 26.9 30.5 24.4 86 1.7 E 13 19 7 10 1015.2 1015.1 0.0
31/07:30am 25.4 29.2 23.5 89 1.3 E 9 15 5 8 1015.0 1014.9 0.0
31/07:00am 25.0 28.5 22.9 88 1.4 E 9 13 5 7 1014.8 1014.7 0.0
31/06:30am 25.2 28.4 23.1 88 1.4 E 11 15 6 8 1014.6 1014.5 0.0
31/06:00am 25.3 28.6 23.2 88 1.4 E 11 17 6 9 1014.3 1014.2 0.0
31/05:30am 25.5 28.8 23.2 87 1.6 E 11 17 6 9 1014.0 1013.9 0.0
31/05:00am 25.6 28.2 23.3 87 1.6 E 15 20 8 11 1013.7 1013.6 0.0
31/04:30am 25.8 28.9 23.5 87 1.6 ENE 13 20 7 11 1013.6 1013.5 0.0
31/04:00am 25.7 29.6 23.6 88 1.4 ENE 9 17 5 9 1013.7 1013.6 0.0
31/03:30am 25.5 29.2 23.2 87 1.6 ENE 9 15 5 8 1013.9 1013.8 0.0
31/03:00am 25.6 28.6 23.3 87 1.6 ENE 13 20 7 11 1013.7 1013.6 0.0
31/02:30am 25.7 28.7 23.4 87 1.6 ENE 13 19 7 10 1013.9 1013.8 0.0
31/02:00am 25.6 28.6 23.3 87 1.6 ENE 13 19 7 10 1013.9 1013.8 0.0
31/01:30am 25.9 29.0 23.6 87 1.6 ENE 13 19 7 10 1014.3 1014.2 0.0
31/01:00am 25.7 29.2 23.6 88 1.4 ENE 11 19 6 10 1014.2 1014.1 0.0
31/12:30am 25.8 29.0 23.7 88 1.4 ENE 13 19 7 10 1014.3 1014.2 0.0
31/12:00am 25.7 29.2 23.6 88 1.4 ENE 11 17 6 9 1014.5 1014.4 0.0
 
Date/Time
CST
Temp
°C
App
Temp
°C
Dew
Point
°C
Rel
Hum
%
Delta-T
°C
Wind Press
QNH
hPa
Press
MSL
hPa
Rain since
9am
mm
Dir  Spd
km/h
Gust
km/h
Spd
kts
Gust
kts
30/11:30pm 25.5 29.6 23.2 87 1.6 ENE 7 11 4 6 1014.5 1014.4 0.0
30/11:00pm 25.5 29.2 23.2 87 1.6 ENE 9 13 5 7 1014.5 1014.4 0.0
30/10:30pm 25.4 28.9 22.9 86 1.7 ENE 9 15 5 8 1014.5 1014.4 0.0
30/10:00pm 25.3 29.0 22.6 85 1.8 NE 7 11 4 6 1014.3 1014.2 0.0
30/09:30pm 25.4 29.0 22.3 83 2.1 ENE 7 9 4 5 1014.3 1014.2 0.0
30/09:00pm 25.5 29.2 22.2 82 2.2 ENE 6 9 3 5 1014.2 1014.1 0.0
30/08:30pm 25.7 29.2 22.2 81 2.3 ENE 7 11 4 6 1013.8 1013.7 0.0
30/08:00pm 25.9 29.0 22.2 80 2.5 ENE 9 13 5 7 1013.4 1013.3 0.0
30/07:30pm 26.1 28.8 22.2 79 2.6 ENE 11 19 6 10 1013.3 1013.2 0.0
30/07:00pm 26.3 28.5 21.9 77 2.9 ENE 13 20 7 11 1012.9 1012.8 0.0
30/06:30pm 26.8 28.5 21.6 73 3.5 ENE 15 22 8 12 1012.6 1012.5 0.0
30/06:00pm 27.6 28.5 21.6 70 4.0 NE 19 28 10 15 1012.5 1012.4 0.0
30/05:30pm 28.4 29.3 21.9 68 4.4 ENE 20 28 11 15 1012.4 1012.3 0.0
30/05:00pm 29.4 31.1 22.4 66 4.8 ENE 17 24 9 13 1012.3 1012.2 0.0
30/04:30pm 29.9 30.9 22.1 63 5.3 ENE 20 28 11 15 1012.1 1012.0 0.0
30/04:00pm 30.9 32.6 23.0 62 5.4 E 19 30 10 16 1012.0 1011.9 0.0
30/03:30pm 31.1 32.8 23.0 62 5.6 E 19 28 10 15 1012.2 1012.1 0.0
30/03:00pm 31.1 33.0 22.7 61 5.7 E 17 28 9 15 1012.2 1012.1 0.0
30/02:30pm 31.1 32.4 22.4 60 5.9 ENE 19 30 10 16 1012.5 1012.4 0.0
30/02:00pm 31.4 32.9 22.7 60 6.0 ENE 19 28 10 15 1013.0 1012.9 0.0
30/01:30pm 31.8 33.4 22.8 59 6.2 E 19 30 10 16 1013.5 1013.4 0.0
30/01:00pm 31.9 33.8 23.4 60 5.9 ENE 19 30 10 16 1014.1 1014.0 0.0
30/12:30pm 31.1 32.0 22.7 61 5.7 ENE 22 33 12 18 1014.7 1014.6 0.0
30/12:00pm 31.3 33.0 23.4 63 5.5 ENE 20 30 11 16 1015.2 1015.1 0.0
30/11:30am 30.7 31.8 23.1 64 5.2 ENE 22 33 12 18 1015.6 1015.5 0.0
30/11:00am 30.8 33.2 23.7 66 4.9 E 17 28 9 15 1016.1 1016.0 0.0
30/10:30am 30.5 32.7 23.9 68 4.6 E 19 26 10 14 1016.4 1016.3 0.0
30/10:00am 29.7 31.9 23.9 71 4.0 E 19 30 10 16 1016.6 1016.5 0.0
30/09:30am 29.5 32.4 24.4 74 3.5 E 17 28 9 15 1016.6 1016.5 0.0
30/09:00am 28.6 31.0 24.2 77 3.0 E 19 26 10 14 1016.5 1016.4 0.0
30/08:30am 27.9 31.2 25.1 85 2.0 E 17 24 9 13 1016.2 1016.1 0.0
30/08:00am 26.8 31.7 25.2 91 1.1 ENE 9 15 5 8 1015.9 1015.8 0.0
30/07:30am 25.4 30.3 24.4 94 0.7 ENE 6 7 3 4 1015.7 1015.6 0.0
30/07:00am 24.0 28.1 23.0 94 0.7 ENE 6 6 3 3 1015.3 1015.2 0.0
30/06:30am 24.0 28.1 23.0 94 0.7 ENE 6 7 3 4 1014.8 1014.7 0.0
30/06:00am 24.2 28.3 23.0 93 0.8 E 6 7 3 4 1014.4 1014.3 0.0
30/05:30am 24.4 28.5 23.2 93 0.8 ENE 7 11 4 6 1013.9 1013.8 0.0
30/05:00am 24.4 28.6 23.2 93 0.8 ENE 6 9 3 5 1013.6 1013.5 0.0
30/04:30am 24.2 28.3 23.0 93 0.8 ENE 6 7 3 4 1013.2 1013.1 0.0
30/04:00am 24.3 28.5 23.1 93 0.8 ENE 6 7 3 4 1013.3 1013.2 0.0
30/03:30am 24.5 28.2 23.3 93 0.8 ENE 9 11 5 6 1013.3 1013.2 0.0
30/03:00am 24.3 27.9 23.1 93 0.8 ENE 9 11 5 6 1013.5 1013.4 0.0
30/02:30am 24.3 28.4 22.9 92 0.9 ENE 6 7 3 4 1013.8 1013.7 0.0
30/02:00am 24.4 28.3 23.0 92 0.9 ENE 7 9 4 5 1014.0 1013.9 0.0
30/01:30am 24.2 28.2 22.8 92 0.9 ENE 6 7 3 4 1014.0 1013.9 0.0
30/01:00am 24.2 28.1 22.6 91 1.1 ENE 6 7 3 4 1014.0 1013.9 0.0
30/12:30am 24.1 27.9 22.4 90 1.1 ENE 6 7 3 4 1014.0 1013.9 0.0
30/12:00am 24.1 27.8 22.2 89 1.3 E 6 6 3 3 1014.1 1014.0 0.0
 
Date/Time
CST
Temp
°C
App
Temp
°C
Dew
Point
°C
Rel
Hum
%
Delta-T
°C
Wind Press
QNH
hPa
Press
MSL
hPa
Rain since
9am
mm
Dir  Spd
km/h
Gust
km/h
Spd
kts
Gust
kts
29/11:30pm 24.3 28.1 22.4 89 1.3 ENE 6 6 3 3 1013.9 1013.8 0.0
29/11:00pm 24.4 28.5 22.3 88 1.4 ENE 4 6 2 3 1013.9 1013.8 0.0
29/10:30pm 24.8 28.7 22.5 87 1.5 ENE 6 6 3 3 1013.9 1013.8 0.0
29/10:00pm 25.1 28.9 22.8 87 1.6 ENE 7 11 4 6 1013.5 1013.4 0.0
29/09:30pm 25.3 28.8 22.8 86 1.7 ENE 9 15 5 8 1013.2 1013.1 0.0
29/09:00pm 25.4 28.4 22.7 85 1.8 ENE 11 15 6 8 1012.9 1012.8 0.0
29/08:30pm 25.4 28.8 22.7 85 1.8 ENE 9 13 5 7 1012.5 1012.4 0.0
29/08:00pm 25.5 28.4 22.4 83 2.1 ENE 11 17 6 9 1012.5 1012.4 0.0
29/07:30pm 25.6 28.3 22.1 81 2.3 ENE 11 17 6 9 1012.2 1012.1 0.0
29/07:00pm 25.9 28.2 22.0 79 2.6 ENE 13 19 7 10 1011.7 1011.6 0.0
29/06:30pm 26.4 27.8 21.8 76 3.1 ENE 17 22 9 12 1011.6 1011.5 0.0
29/06:00pm 27.4 28.5 21.9 72 3.7 E 19 24 10 13 1011.5 1011.4 0.0
29/05:30pm 28.4 30.0 22.2 69 4.2 ENE 17 24 9 13 1011.5 1011.4 0.0
29/05:00pm 29.2 30.8 22.2 66 4.7 ENE 17 28 9 15 1011.7 1011.6 0.0
29/04:30pm 29.4 31.5 22.4 66 4.8 E 15 22 8 12 1011.6 1011.5 0.0
29/04:00pm 30.3 32.7 23.0 65 5.0 ENE 15 22 8 12 1011.5 1011.4 0.0
29/03:30pm 30.0 31.7 22.4 63 5.2 ENE 17 26 9 14 1011.6 1011.5 0.0
29/03:00pm 30.9 32.9 23.0 62 5.4 E 17 28 9 15 1011.7 1011.6 0.0
29/02:30pm 30.9 32.5 22.8 62 5.5 ENE 19 28 10 15 1012.2 1012.1 0.0
29/02:00pm 31.4 33.6 23.2 61 5.6 ENE 17 28 9 15 1012.5 1012.4 0.0
29/01:30pm 30.8 32.2 22.9 62 5.4 E 20 30 11 16 1012.8 1012.7 0.0
29/01:00pm 31.4 33.3 23.5 63 5.5 ENE 19 24 10 13 1013.4 1013.3 0.0
29/12:30pm 29.6 31.2 22.1 64 5.1 ENE 17 26 9 14 1013.9 1013.8 0.0
29/12:00pm 29.9 31.9 22.9 66 4.8 E 17 28 9 15 1014.1 1014.0 0.0
29/11:30am 30.1 34.0 24.3 71 4.0 E 11 22 6 12 1014.6 1014.5 0.0
29/11:00am 28.2 31.2 23.3 75 3.4 E 13 20 7 11 1015.1 1015.0 0.0
29/10:30am 26.5 30.1 23.0 81 2.4 E 9 17 5 9 1015.5 1015.4 0.0
29/10:00am 25.7 27.9 22.6 83 2.1 E 15 20 8 11 1015.6 1015.5 0.0
29/09:30am 25.6 28.6 22.7 84 2.0 E 11 13 6 7 1015.7 1015.6 0.0
29/09:00am 25.9 29.4 22.8 83 2.1 SSE 9 17 5 9 1015.5 1015.4 0.0
29/08:30am 26.0 29.6 23.1 84 2.0 ESE 9 13 5 7 1015.1 1015.0 0.0
29/08:00am 25.4 29.5 23.3 88 1.4 ESE 7 13 4 7 1014.8 1014.7 0.0
29/07:30am 24.3 28.1 22.7 91 1.1 ESE 7 13 4 7 1014.4 1014.3 0.0
29/07:00am 22.8 25.9 21.1 90 1.1 ESE 6 6 3 3 1013.7 1013.6 0.0
29/06:30am 22.0 24.6 20.1 89 1.2 ESE 6 7 3 4 1013.5 1013.4 0.0
29/06:00am 20.8 22.7 18.6 87 1.4 ESE 6 7 3 4 1013.1 1013.0 0.0
29/05:30am 21.0 22.8 18.8 87 1.4 E 7 7 4 4 1012.9 1012.8 0.0
29/05:00am 20.8 22.7 18.6 87 1.4 ESE 6 7 3 4 1012.6 1012.5 0.0
29/04:30am 20.8 23.0 18.4 86 1.5 ENE 4 4 2 2 1012.3 1012.2 0.0
29/04:00am 20.6 22.7 18.0 85 1.6 NE 4 6 2 3 1012.2 1012.1 0.0
29/03:30am 20.4 22.3 17.6 84 1.7 ENE 4 4 2 2 1012.1 1012.0 0.0
29/03:00am 20.3 22.1 17.5 84 1.7 ENE 4 6 2 3 1012.1 1012.0 0.0
29/02:30am 20.1 21.8 17.1 83 1.8 NE 4 6 2 3 1012.3 1012.2 0.0
29/02:00am 20.0 21.9 16.8 82 1.9 NE 2 4 1 2 1012.5 1012.4 0.0
29/01:30am 20.1 21.6 16.7 81 2.1 NE 4 4 2 2 1012.7 1012.6 0.0
29/01:00am 21.2 22.9 18.0 82 2.0 NE 6 7 3 4 1012.8 1012.7 0.0
29/12:30am 20.3 21.5 16.9 81 2.1 NE 6 6 3 3 1013.2 1013.1 0.0
29/12:00am 20.1 21.1 16.3 79 2.3 NE 6 6 3 3 1013.3 1013.2 0.0
 
Date/Time
CST
Temp
°C
App
Temp
°C
Dew
Point
°C
Rel
Hum
%
Delta-T
°C
Wind Press
QNH
hPa
Press
MSL
hPa
Rain since
9am
mm
Dir  Spd
km/h
Gust
km/h
Spd
kts
Gust
kts
28/11:30pm 19.9 20.6 15.7 77 2.5 NE 6 6 3 3 1013.4 1013.3 0.0
28/11:00pm 20.2 20.8 15.4 74 2.8 NE 6 6 3 3 1013.1 1013.0 0.0
28/10:30pm 20.7 21.4 15.5 72 3.1 NE 6 6 3 3 1013.1 1013.0 0.0
28/10:00pm 21.7 22.6 16.2 71 3.3 NE 6 7 3 4 1012.9 1012.8 0.0
28/09:30pm 21.3 21.9 15.4 69 3.5 NE 6 7 3 4 1012.9 1012.8 0.0
28/09:00pm 21.7 22.2 15.1 66 3.9 NE 6 6 3 3 1012.8 1012.7 0.0
28/08:30pm 22.8 23.6 15.9 65 4.2 NE 6 6 3 3 1012.5 1012.4 0.0
28/08:00pm 23.7 24.6 16.2 63 4.6 ENE 6 9 3 5 1012.2 1012.1 0.0
28/07:30pm 24.2 24.8 15.9 59 5.0 ENE 7 9 4 5 1012.0 1011.9 0.0
28/07:00pm 25.1 25.8 16.0 57 5.5 NE 7 11 4 6 1011.7 1011.6 0.0
28/06:30pm 26.2 26.2 15.3 51 6.6 ENE 9 15 5 8 1011.7 1011.6 0.0
28/06:00pm 27.5 26.5 14.5 45 7.8 ENE 13 17 7 9 1011.5 1011.4 0.0
28/05:30pm 28.4 27.4 14.6 43 8.3 NE 13 22 7 12 1011.4 1011.3 0.0
28/05:00pm 29.5 28.3 14.1 39 9.3 NE 13 20 7 11 1011.2 1011.1 0.0
28/04:30pm 30.9 29.6 13.7 35 10.4 E 13 19 7 10 1011.2 1011.1 0.0
28/04:00pm 31.2 29.5 12.5 31 11.1 ENE 13 20 7 11 1011.2 1011.1 0.0
28/03:30pm 31.2 29.0 12.1 31 11.2 ENE 15 22 8 12 1011.3 1011.2 0.0
28/03:00pm 31.0 28.9 12.4 32 11.0 ENE 15 24 8 13 1011.7 1011.6 0.0
28/02:30pm 30.7 28.5 14.3 36 10.0 ENE 19 26 10 14 1012.2 1012.1 0.0
28/02:00pm 30.6 27.9 13.4 35 10.3 E 20 28 11 15 1012.6 1012.5 0.0
28/01:30pm 31.8 28.7 11.6 29 11.8 E 19 26 10 14 1013.3 1013.2 0.0
28/01:00pm 30.7 27.3 11.1 30 11.3 E 20 28 11 15 1013.9 1013.8 0.0
28/12:30pm 30.4 26.9 10.9 30 11.2 ESE 20 30 11 16 1014.5 1014.4 0.0
28/12:00pm 30.2 27.1 12.1 32 10.6 ESE 20 30 11 16 1015.0 1014.9 0.0
28/11:30am 29.7 26.5 13.0 35 9.9 E 22 32 12 17 1015.6 1015.5 0.0
28/11:00am 29.2 25.6 13.0 37 9.6 ESE 24 35 13 19 1016.0 1015.9 0.0
28/10:30am 28.7 25.6 14.5 42 8.6 E 24 32 13 17 1016.5 1016.4 0.0
28/10:00am 28.4 26.2 15.0 44 8.1 E 20 32 11 17 1016.6 1016.5 0.0
28/09:30am 28.1 26.4 15.7 46 7.6 ESE 19 32 10 17 1016.6 1016.5 0.0
28/09:00am 27.1 25.5 16.1 51 6.8 ESE 19 28 10 15 1016.4 1016.3 0.0
28/08:30am 26.1 24.3 16.1 54 6.1 E 20 33 11 18 1016.1 1016.0 0.0

Other Formats:

Comma delimited format used in spreadsheet applications
http://www.bom.gov.au/fwo/IDD60801/IDD60801.94108.axf

JavaScript Object Notation format (JSON) in row-major order
http://www.bom.gov.au/fwo/IDD60801/IDD60801.94108.json